Time;durP1;ratioP1;P1;durP2;ratioP2;P2;SDS_P1;SDS_P2;PMS_P1;PMS_P2;Temp;Humidity;BMP_temperature;BMP_pressure;BME280_temperature;BME280_humidity;BME280_pressure;Samples;Min_cycle;Max_cycle;Signal;HPM_P1;HPM_P2
2023/12/18 00:01:58;;;;;;;18.83;9.90;;;;;;;2.00;100.00;102091.19;5051950;28;20235;-64
2023/12/18 00:04:23;;;;;;;17.27;9.17;;;;;;;2.03;100.00;102090.38;5065127;28;20188;-63
2023/12/18 00:06:48;;;;;;;20.90;9.57;;;;;;;2.13;100.00;102087.13;5052287;28;20238;-64
2023/12/18 00:09:14;;;;;;;18.80;9.10;;;;;;;2.20;100.00;102080.44;5059794;28;20272;-63
2023/12/18 00:11:39;;;;;;;20.17;10.13;;;;;;;2.30;100.00;102078.88;5057174;28;20232;-62
2023/12/18 00:14:04;;;;;;;22.57;9.73;;;;;;;2.25;100.00;102076.28;5057936;28;20545;-62
2023/12/18 00:16:30;;;;;;;16.27;8.43;;;;;;;2.20;100.00;102068.59;5056650;28;20258;-62
2023/12/18 00:18:55;;;;;;;16.43;9.73;;;;;;;2.39;100.00;102073.88;5055626;28;20283;-62
2023/12/18 00:21:20;;;;;;;18.83;8.77;;;;;;;2.25;100.00;102066.94;5054928;28;20221;-63
2023/12/18 00:23:45;;;;;;;17.90;9.00;;;;;;;2.24;100.00;102077.94;5060907;28;20628;-63
2023/12/18 00:26:11;;;;;;;14.37;8.30;;;;;;;2.20;100.00;102071.13;5058360;28;20169;-63
2023/12/18 00:28:36;;;;;;;15.63;9.33;;;;;;;2.20;100.00;102067.75;5051853;28;20189;-63
2023/12/18 00:31:01;;;;;;;18.30;9.03;;;;;;;2.09;100.00;102078.59;5023244;28;20221;-63
2023/12/18 00:33:26;;;;;;;15.30;8.20;;;;;;;2.00;100.00;102064.94;5054802;28;20701;-63
2023/12/18 00:35:52;;;;;;;12.70;8.27;;;;;;;2.02;100.00;102066.69;5058037;28;20178;-62
2023/12/18 00:38:17;;;;;;;16.40;8.70;;;;;;;2.01;100.00;102059.91;5053975;28;20343;-64
2023/12/18 00:40:42;;;;;;;18.47;9.63;;;;;;;1.72;100.00;102047.66;5048736;28;20220;-64
2023/12/18 00:43:07;;;;;;;27.30;10.07;;;;;;;1.59;100.00;102048.34;5062320;28;20621;-63
2023/12/18 00:45:33;;;;;;;20.07;9.60;;;;;;;1.36;100.00;102038.72;5057374;28;20200;-63
2023/12/18 00:47:58;;;;;;;18.40;10.00;;;;;;;1.45;100.00;102035.44;5054823;28;20185;-63
2023/12/18 00:50:23;;;;;;;20.87;10.03;;;;;;;1.40;100.00;102032.00;5050150;28;20270;-63
2023/12/18 00:52:48;;;;;;;17.90;10.67;;;;;;;1.52;100.00;102036.41;5067506;28;20181;-63
2023/12/18 00:55:14;;;;;;;19.87;10.37;;;;;;;1.33;100.00;102040.34;5065295;28;20283;-63
2023/12/18 00:57:39;;;;;;;16.10;9.90;;;;;;;1.36;100.00;102042.94;5064651;28;20241;-63
2023/12/18 01:00:05;;;;;;;21.80;11.33;;;;;;;1.16;100.00;102043.47;5047969;28;20606;-63
2023/12/18 01:02:30;;;;;;;18.50;10.53;;;;;;;1.12;100.00;102047.66;5051980;28;20182;-63
2023/12/18 01:04:55;;;;;;;16.83;11.43;;;;;;;1.06;100.00;102049.25;5058048;28;20187;-63
2023/12/18 01:07:22;;;;;;;25.50;13.93;;;;;;;0.98;100.00;102044.06;5070519;28;20624;-63
2023/12/18 01:09:47;;;;;;;21.90;14.20;;;;;;;0.89;100.00;102036.28;5070699;28;20310;-63
2023/12/18 01:12:12;;;;;;;23.03;15.40;;;;;;;1.02;100.00;102034.78;5076268;28;20270;-63
2023/12/18 01:14:37;;;;;;;18.03;14.40;;;;;;;0.90;100.00;102038.84;5070554;28;20595;-63
2023/12/18 01:17:03;;;;;;;24.23;15.37;;;;;;;0.77;100.00;102044.53;5070117;28;20188;-63
2023/12/18 01:19:28;;;;;;;21.83;16.87;;;;;;;0.53;100.00;102034.81;5068557;28;20259;-63
2023/12/18 01:21:53;;;;;;;22.00;15.43;;;;;;;0.31;100.00;102042.00;5074737;28;20236;-63
2023/12/18 01:24:19;;;;;;;18.13;14.00;;;;;;;0.29;100.00;102052.09;5070756;28;20187;-63
2023/12/18 01:26:44;;;;;;;19.63;14.87;;;;;;;0.43;100.00;102047.28;5069858;28;20180;-63
2023/12/18 01:29:09;;;;;;;24.50;14.63;;;;;;;0.19;100.00;102050.22;5068898;28;20371;-63
2023/12/18 01:31:35;;;;;;;21.40;15.60;;;;;;;0.16;100.00;102047.63;5059800;28;20236;-63
2023/12/18 01:34:00;;;;;;;19.20;13.63;;;;;;;0.18;100.00;102057.78;5060208;28;20630;-63
2023/12/18 01:36:26;;;;;;;19.63;14.70;;;;;;;0.06;100.00;102048.25;5067403;28;20187;-62
2023/12/18 01:38:51;;;;;;;18.80;13.80;;;;;;;-0.01;100.00;102055.72;5067791;28;20179;-63
2023/12/18 01:41:17;;;;;;;15.33;11.63;;;;;;;0.00;100.00;102059.13;5060928;28;20227;-62
2023/12/18 01:43:42;;;;;;;20.40;13.20;;;;;;;0.04;100.00;102058.38;5065301;28;20183;-63
2023/12/18 01:46:08;;;;;;;18.63;12.10;;;;;;;-0.07;100.00;102054.75;5069580;28;20184;-63
2023/12/18 01:48:34;;;;;;;15.53;11.27;;;;;;;-0.10;100.00;102053.03;5067199;28;20643;-63
2023/12/18 01:51:00;;;;;;;25.50;12.20;;;;;;;-0.11;100.00;102048.78;5068420;28;20274;-63
2023/12/18 01:53:46;;;;;;;22.13;11.53;;;;;;;-0.18;100.00;102049.47;5078163;28;20182;-63
2023/12/18 01:56:14;;;;;;;20.07;11.90;;;;;;;-0.23;100.00;102043.47;5060710;28;20179;-63
2023/12/18 01:58:43;;;;;;;29.10;10.93;;;;;;;-0.12;100.00;102047.06;5053214;28;20874;-63
2023/12/18 02:01:08;;;;;;;17.77;10.43;;;;;;;-0.29;100.00;102051.75;5053628;28;20681;-62
2023/12/18 02:03:34;;;;;;;32.67;10.70;;;;;;;-0.44;100.00;102046.38;5062324;28;20217;-62
2023/12/18 02:06:00;;;;;;;23.53;10.70;;;;;;;-0.34;100.00;102040.69;5055233;28;20186;-63
2023/12/18 02:08:26;;;;;;;21.47;10.43;;;;;;;-0.48;100.00;102040.38;5055066;28;20187;-63
2023/12/18 02:10:55;;;;;;;17.17;10.77;;;;;;;-0.49;100.00;102039.53;5051230;28;20237;-64
2023/12/18 02:13:20;;;;;;;32.23;11.67;;;;;;;-0.58;100.00;102054.50;5054332;28;20193;-63
2023/12/18 02:15:46;;;;;;;19.47;10.93;;;;;;;-0.48;100.00;102055.56;5055713;28;20189;-62
2023/12/18 02:18:11;;;;;;;26.83;12.67;;;;;;;-0.59;100.00;102049.41;5055566;28;20186;-63
2023/12/18 02:20:36;;;;;;;30.63;11.07;;;;;;;-0.60;100.00;102046.00;5049595;28;20594;-63
2023/12/18 02:23:02;;;;;;;43.03;10.70;;;;;;;-0.49;100.00;102038.69;5065921;28;20180;-63
2023/12/18 02:25:27;;;;;;;21.07;10.73;;;;;;;-0.58;100.00;102036.81;5056106;28;20174;-63
2023/12/18 02:27:52;;;;;;;15.40;9.60;;;;;;;-0.44;100.00;102041.31;5054881;28;20208;-62
2023/12/18 02:30:20;;;;;;;22.20;11.23;;;;;;;-0.33;100.00;102044.94;5046577;28;20228;-64
2023/12/18 02:32:45;;;;;;;16.67;10.50;;;;;;;-0.60;100.00;102043.47;5067634;28;20197;-63
2023/12/18 02:35:11;;;;;;;27.97;11.20;;;;;;;-0.59;100.00;102037.63;5054906;28;20265;-63
2023/12/18 02:37:37;;;;;;;20.27;11.00;;;;;;;-0.54;100.00;102035.19;5054393;28;20182;-63
2023/12/18 02:40:03;;;;;;;12.93;9.53;;;;;;;-0.55;100.00;102033.50;5049599;28;20179;-63
2023/12/18 02:42:28;;;;;;;18.63;10.50;;;;;;;-0.69;100.00;102034.03;5051191;28;20666;-63
2023/12/18 02:44:53;;;;;;;18.70;11.60;;;;;;;-0.56;100.00;102029.25;5053610;28;20192;-63
2023/12/18 02:47:19;;;;;;;39.73;12.33;;;;;;;-0.63;100.00;102028.25;5054451;28;20260;-62
2023/12/18 02:49:44;;;;;;;21.63;10.80;;;;;;;-0.51;100.00;102025.13;5053180;28;20220;-63
2023/12/18 02:52:10;;;;;;;22.17;10.53;;;;;;;-0.58;100.00;102025.81;5059164;28;20229;-62
2023/12/18 02:54:35;;;;;;;21.00;11.23;;;;;;;-0.66;100.00;102028.19;5068262;28;20267;-63
2023/12/18 02:57:00;;;;;;;21.13;11.47;;;;;;;-0.40;100.00;102030.44;5073286;28;20262;-63
2023/12/18 02:59:26;;;;;;;23.10;10.90;;;;;;;-0.29;100.00;102026.47;5073657;28;20173;-62
2023/12/18 03:01:51;;;;;;;24.20;11.03;;;;;;;-0.31;100.00;102028.13;5056387;28;20226;-62
2023/12/18 03:04:18;;;;;;;15.57;9.77;;;;;;;-0.39;100.00;102019.50;5069359;28;20297;-62
2023/12/18 03:06:45;;;;;;;26.30;11.20;;;;;;;-0.35;100.00;102021.28;5073073;28;20269;-63
2023/12/18 03:09:10;;;;;;;20.20;10.13;;;;;;;-0.43;100.00;102016.06;5073821;28;20239;-63
2023/12/18 03:11:35;;;;;;;20.60;11.10;;;;;;;-0.41;100.00;102008.50;5075571;28;20231;-63
2023/12/18 03:14:01;;;;;;;21.93;11.27;;;;;;;-0.38;100.00;102008.59;5062506;28;20174;-63
2023/12/18 03:16:26;;;;;;;27.47;12.03;;;;;;;-0.32;100.00;102016.31;5053067;28;20187;-62
2023/12/18 03:18:51;;;;;;;25.83;12.20;;;;;;;-0.21;100.00;102009.78;5053706;28;20223;-63
2023/12/18 03:21:16;;;;;;;32.40;14.20;;;;;;;-0.24;100.00;102011.41;5053280;28;20216;-63
2023/12/18 03:23:42;;;;;;;23.47;13.13;;;;;;;-0.11;100.00;102013.38;5059292;28;20522;-63
2023/12/18 03:26:07;;;;;;;26.43;13.00;;;;;;;-0.21;100.00;102013.97;5053710;28;20192;-63
2023/12/18 03:28:33;;;;;;;20.73;13.17;;;;;;;-0.22;100.00;102007.22;5053681;28;20652;-63
2023/12/18 03:30:58;;;;;;;23.63;13.80;;;;;;;-0.27;100.00;102009.66;5050205;28;20683;-63
2023/12/18 03:33:23;;;;;;;18.13;13.23;;;;;;;-0.30;100.00;102011.28;5061872;28;20201;-64
2023/12/18 03:35:48;;;;;;;19.63;12.43;;;;;;;-0.29;100.00;102006.22;5053962;28;20179;-63
2023/12/18 03:38:14;;;;;;;18.10;13.27;;;;;;;-0.42;100.00;102006.78;5052997;28;20553;-63
2023/12/18 03:40:39;;;;;;;18.93;12.03;;;;;;;-0.43;100.00;102015.22;5048028;28;20245;-63
2023/12/18 03:43:04;;;;;;;23.60;12.87;;;;;;;-0.47;100.00;102008.38;5063619;28;20193;-63
2023/12/18 03:45:30;;;;;;;28.50;12.80;;;;;;;-0.21;100.00;102003.84;5053592;28;20604;-63
2023/12/18 03:47:55;;;;;;;29.97;12.57;;;;;;;-0.13;100.00;102002.34;5053486;28;20195;-62
2023/12/18 03:50:20;;;;;;;25.20;13.80;;;;;;;0.15;100.00;102003.75;5045987;28;20257;-63
2023/12/18 03:52:46;;;;;;;30.27;12.73;;;;;;;0.05;100.00;102006.94;5066071;28;20231;-63
2023/12/18 03:55:11;;;;;;;31.50;15.50;;;;;;;0.00;100.00;101995.88;5072191;28;20190;-63
2023/12/18 03:57:36;;;;;;;20.87;13.00;;;;;;;0.05;100.00;102001.88;5059672;28;20191;-63
2023/12/18 04:00:03;;;;;;;23.03;12.40;;;;;;;-0.10;100.00;101996.50;5053204;28;20186;-63
2023/12/18 04:02:28;;;;;;;26.37;13.20;;;;;;;0.07;100.00;101994.31;5071076;28;20197;-63
2023/12/18 04:04:54;;;;;;;32.93;15.47;;;;;;;0.34;100.00;101998.19;5053345;28;20283;-64
2023/12/18 04:07:19;;;;;;;24.30;12.50;;;;;;;0.18;100.00;101999.59;5052608;28;20192;-64
2023/12/18 04:09:45;;;;;;;22.60;12.60;;;;;;;0.06;100.00;101990.91;5071350;28;20179;-64
2023/12/18 04:12:10;;;;;;;25.87;13.00;;;;;;;0.14;100.00;101998.66;5065691;28;20246;-64
2023/12/18 04:14:35;;;;;;;21.10;12.07;;;;;;;0.18;100.00;101984.41;5051116;28;20214;-64
2023/12/18 04:17:00;;;;;;;26.63;12.13;;;;;;;0.16;100.00;101984.34;5052266;28;20204;-63
2023/12/18 04:19:26;;;;;;;18.43;12.63;;;;;;;0.09;100.00;101985.91;5051801;28;20228;-63
2023/12/18 04:21:51;;;;;;;26.37;11.70;;;;;;;0.30;100.00;101993.06;5056026;28;20226;-64
2023/12/18 04:24:16;;;;;;;17.00;11.37;;;;;;;0.31;100.00;101994.78;5054039;28;20178;-64
2023/12/18 04:26:43;;;;;;;24.33;12.27;;;;;;;0.38;100.00;101994.88;5051869;28;20199;-64
2023/12/18 04:29:08;;;;;;;17.50;12.27;;;;;;;0.18;100.00;101990.31;5051224;28;20178;-63
2023/12/18 04:31:34;;;;;;;23.93;12.13;;;;;;;0.05;100.00;101989.22;5033587;28;20231;-62
2023/12/18 04:33:59;;;;;;;24.40;12.17;;;;;;;0.10;100.00;101997.75;5056574;28;20185;-63
2023/12/18 04:36:24;;;;;;;17.30;12.57;;;;;;;0.24;100.00;101992.09;5052448;28;20241;-63
2023/12/18 04:38:50;;;;;;;17.80;11.53;;;;;;;0.20;100.00;101995.38;5053087;28;20179;-63
2023/12/18 04:41:19;;;;;;;27.67;12.20;;;;;;;0.19;100.00;101989.47;5051992;28;20235;-63
2023/12/18 04:43:45;;;;;;;22.60;11.63;;;;;;;0.07;100.00;101989.25;5057302;28;20185;-63
2023/12/18 04:46:10;;;;;;;25.00;11.63;;;;;;;0.18;100.00;101989.47;5052923;28;20249;-62
2023/12/18 04:48:35;;;;;;;22.17;12.97;;;;;;;0.04;100.00;101986.63;5053314;28;20181;-63
2023/12/18 04:51:01;;;;;;;18.07;12.17;;;;;;;0.11;100.00;101996.06;5050307;28;20231;-63
2023/12/18 04:53:26;;;;;;;21.03;12.37;;;;;;;0.05;100.00;101994.28;5064629;28;20581;-63
2023/12/18 04:55:52;;;;;;;16.30;12.67;;;;;;;0.03;100.00;101987.50;5071397;28;20240;-63
2023/12/18 04:58:17;;;;;;;16.47;12.13;;;;;;;0.12;100.00;101990.19;5070762;28;20514;-63
2023/12/18 05:00:42;;;;;;;17.87;11.67;;;;;;;0.11;100.00;101993.53;5066143;28;20231;-63
2023/12/18 05:03:07;;;;;;;25.70;11.87;;;;;;;-0.04;100.00;101997.50;5080453;28;20181;-64
2023/12/18 05:05:33;;;;;;;22.97;11.93;;;;;;;-0.09;100.00;101993.16;5071280;28;20220;-62
2023/12/18 05:07:58;;;;;;;22.50;11.67;;;;;;;-0.35;100.00;101989.28;5070303;28;20178;-63
2023/12/18 05:10:23;;;;;;;18.67;11.70;;;;;;;-0.40;100.00;101988.28;5063448;28;20265;-63
2023/12/18 05:12:48;;;;;;;22.13;10.43;;;;;;;-0.36;100.00;101982.50;5083647;28;20556;-63
2023/12/18 05:15:14;;;;;;;22.20;10.37;;;;;;;-0.28;100.00;101989.41;5071665;28;20183;-63
2023/12/18 05:17:39;;;;;;;20.77;10.43;;;;;;;-0.34;100.00;101990.13;5070459;28;20185;-63
2023/12/18 05:20:06;;;;;;;23.70;10.43;;;;;;;-0.31;100.00;101992.72;5050627;28;20226;-63
2023/12/18 05:22:31;;;;;;;22.90;13.47;;;;;;;-0.23;100.00;101997.94;5066060;28;20175;-63
2023/12/18 05:24:56;;;;;;;20.13;11.47;;;;;;;-0.22;100.00;101997.13;5050972;28;20278;-63
2023/12/18 05:27:22;;;;;;;25.83;12.37;;;;;;;-0.19;100.00;101989.56;5051609;28;20175;-63
2023/12/18 05:29:48;;;;;;;20.20;11.47;;;;;;;-0.19;100.00;101987.03;5052110;28;20179;-63
2023/12/18 05:32:13;;;;;;;27.37;12.03;;;;;;;0.02;100.00;101986.63;5056498;28;20588;-63
2023/12/18 05:34:38;;;;;;;22.77;12.10;;;;;;;0.01;100.00;101984.06;5051698;28;20181;-63
2023/12/18 05:37:03;;;;;;;24.57;11.67;;;;;;;0.02;100.00;101983.25;5051459;28;20195;-63
2023/12/18 05:39:29;;;;;;;22.37;11.53;;;;;;;0.05;100.00;101986.69;5051432;28;20230;-63
2023/12/18 05:41:54;;;;;;;24.07;11.60;;;;;;;-0.01;100.00;101989.94;5055224;28;20235;-64
2023/12/18 05:44:19;;;;;;;20.07;10.30;;;;;;;-0.13;100.00;101984.63;5052401;28;20286;-63
2023/12/18 05:46:44;;;;;;;23.97;11.37;;;;;;;-0.26;100.00;101987.75;5050675;28;20641;-63
2023/12/18 05:49:10;;;;;;;18.93;11.37;;;;;;;-0.08;100.00;101980.53;5050210;28;20241;-65
2023/12/18 05:51:35;;;;;;;22.10;11.30;;;;;;;-0.06;100.00;101988.16;5053043;28;20301;-64
2023/12/18 05:54:00;;;;;;;15.77;10.57;;;;;;;-0.01;100.00;101986.56;5064461;28;20630;-64
2023/12/18 05:56:26;;;;;;;18.47;11.70;;;;;;;0.05;100.00;101993.41;5069864;28;20267;-63
2023/12/18 05:58:52;;;;;;;18.13;12.67;;;;;;;0.15;100.00;101986.03;5070966;28;20186;-63
2023/12/18 06:01:18;;;;;;;19.00;11.37;;;;;;;-0.02;100.00;101977.28;5062091;28;20251;-63
2023/12/18 06:03:44;;;;;;;18.20;11.10;;;;;;;-0.05;100.00;101982.25;5076566;28;20189;-63
2023/12/18 06:06:09;;;;;;;16.37;11.00;;;;;;;-0.11;100.00;101988.06;5070391;28;20189;-63
2023/12/18 06:08:34;;;;;;;17.67;11.50;;;;;;;0.22;100.00;101984.47;5060388;28;20605;-63
2023/12/18 06:11:00;;;;;;;19.50;11.87;;;;;;;0.39;100.00;101999.97;5048257;28;20221;-63
2023/12/18 06:13:25;;;;;;;18.90;11.30;;;;;;;0.40;100.00;101999.16;5059311;28;20263;-64
2023/12/18 06:15:50;;;;;;;17.67;10.07;;;;;;;0.32;100.00;101993.94;5051332;28;20189;-64
2023/12/18 06:18:15;;;;;;;18.53;10.20;;;;;;;0.32;100.00;101995.63;5050723;28;20220;-63
2023/12/18 06:20:41;;;;;;;20.70;10.13;;;;;;;0.23;100.00;101983.63;5045225;28;20242;-63
2023/12/18 06:23:06;;;;;;;20.40;11.50;;;;;;;0.21;100.00;101981.91;5049425;28;20240;-64
2023/12/18 06:25:31;;;;;;;16.20;11.13;;;;;;;0.10;100.00;101977.50;5051314;28;20180;-63
2023/12/18 06:27:56;;;;;;;16.37;9.97;;;;;;;0.09;100.00;101975.78;5050536;28;20229;-63
2023/12/18 06:30:22;;;;;;;16.33;10.30;;;;;;;0.02;100.00;101975.66;5056153;28;20229;-65
2023/12/18 06:32:47;;;;;;;17.50;10.07;;;;;;;0.08;100.00;101984.22;5064055;28;20303;-64
2023/12/18 06:35:13;;;;;;;22.27;11.73;;;;;;;0.09;100.00;101988.44;5065832;28;20234;-64
2023/12/18 06:37:38;;;;;;;16.00;9.73;;;;;;;0.18;100.00;101984.41;5072358;28;20507;-64
2023/12/18 06:40:04;;;;;;;14.87;8.83;;;;;;;-0.03;100.00;101973.88;5061993;28;20578;-63
2023/12/18 06:42:29;;;;;;;21.10;10.60;;;;;;;-0.22;100.00;101975.19;5057737;28;20971;-63
2023/12/18 06:44:55;;;;;;;13.23;9.23;;;;;;;-0.18;100.00;101974.41;5063050;28;20187;-64
2023/12/18 06:47:20;;;;;;;20.27;10.30;;;;;;;-0.21;100.00;101981.09;5070759;28;20182;-64
2023/12/18 06:49:45;;;;;;;21.37;10.00;;;;;;;-0.30;100.00;101988.50;5069810;28;20584;-64
2023/12/18 06:52:10;;;;;;;17.53;10.40;;;;;;;-0.09;100.00;101988.94;5074959;28;20236;-64
2023/12/18 06:54:36;;;;;;;18.80;9.77;;;;;;;-0.08;100.00;101993.16;5071012;28;20244;-65
2023/12/18 06:57:02;;;;;;;15.30;9.30;;;;;;;-0.02;100.00;101997.50;5073618;28;20309;-64
2023/12/18 06:59:27;;;;;;;19.03;10.10;;;;;;;-0.21;100.00;102002.19;5072230;28;20222;-63
2023/12/18 07:01:53;;;;;;;18.53;9.93;;;;;;;-0.30;100.00;101993.56;5077506;27;20311;-64
2023/12/18 07:04:18;;;;;;;16.20;10.30;;;;;;;-0.23;100.00;101997.94;5073948;28;20181;-64
2023/12/18 07:06:43;;;;;;;13.37;9.83;;;;;;;-0.30;100.00;101986.81;5072068;28;20331;-63
2023/12/18 07:09:09;;;;;;;14.37;10.77;;;;;;;-0.27;100.00;101991.94;5069752;28;20184;-63
2023/12/18 07:11:34;;;;;;;17.30;10.23;;;;;;;-0.34;100.00;101997.69;5054946;28;21042;-64
2023/12/18 07:14:00;;;;;;;18.20;10.87;;;;;;;-0.49;100.00;102001.59;5066662;28;20189;-63
2023/12/18 07:16:25;;;;;;;12.63;9.83;;;;;;;-0.30;100.00;102008.75;5067939;28;20214;-63
2023/12/18 07:18:50;;;;;;;19.30;10.33;;;;;;;-0.42;100.00;102006.78;5062718;28;20225;-63
2023/12/18 07:21:16;;;;;;;14.23;9.70;;;;;;;-0.48;100.00;102002.47;5059807;28;20285;-63
2023/12/18 07:23:42;;;;;;;14.47;10.73;;;;;;;-0.42;100.00;102004.25;5059572;28;20622;-62
2023/12/18 07:26:12;;;;;;;14.27;10.27;;;;;;;-0.64;100.00;101993.69;5059362;28;20186;-63
2023/12/18 07:28:37;;;;;;;12.93;9.47;;;;;;;-0.75;100.00;101995.97;5058977;28;20178;-65
2023/12/18 07:31:03;;;;;;;16.07;9.40;;;;;;;-0.56;100.00;101993.84;5056854;28;20711;-63
2023/12/18 07:33:28;;;;;;;15.40;10.60;;;;;;;-0.66;100.00;101993.66;5060726;28;20256;-63
2023/12/18 07:35:54;;;;;;;14.37;9.83;;;;;;;-0.67;100.00;102002.06;5067705;28;20209;-64
2023/12/18 07:38:19;;;;;;;14.07;11.17;;;;;;;-0.76;100.00;102006.88;5053761;28;20186;-61
2023/12/18 07:40:44;;;;;;;15.50;10.67;;;;;;;-0.93;100.00;102010.69;5064207;28;20786;-61
2023/12/18 07:43:09;;;;;;;15.53;10.33;;;;;;;-0.99;100.00;102016.47;5069080;28;20197;-60
2023/12/18 07:45:35;;;;;;;22.67;10.80;;;;;;;-0.96;100.00;102019.06;5070593;28;20489;-61
2023/12/18 07:48:00;;;;;;;28.70;11.87;;;;;;;-1.03;100.00;102017.19;5068614;28;20206;-60
2023/12/18 07:50:25;;;;;;;20.07;11.13;;;;;;;-0.96;100.00;102020.75;5064784;28;20224;-62
2023/12/18 07:52:50;;;;;;;17.83;12.00;;;;;;;-0.92;100.00;102025.03;5082628;28;20215;-61
2023/12/18 07:55:15;;;;;;;16.60;10.80;;;;;;;-0.95;100.00;102019.94;5072737;28;20190;-62
2023/12/18 07:57:42;;;;;;;15.40;10.90;;;;;;;-1.05;100.00;102016.31;5063569;28;20663;-62
2023/12/18 08:00:08;;;;;;;19.37;11.43;;;;;;;-1.03;100.00;102010.50;5043165;28;20182;-61
2023/12/18 08:02:34;;;;;;;15.43;10.67;;;;;;;-0.81;100.00;102016.03;5065255;28;21000;-62
2023/12/18 08:04:59;;;;;;;18.00;11.23;;;;;;;-0.63;100.00;102018.16;5046811;28;20177;-61
2023/12/18 08:07:24;;;;;;;14.20;10.90;;;;;;;-0.76;100.00;102011.94;5057262;28;20301;-62
2023/12/18 08:09:50;;;;;;;13.60;10.70;;;;;;;-0.86;100.00;102005.81;5057201;28;20185;-62
2023/12/18 08:12:15;;;;;;;18.67;10.50;;;;;;;-0.67;100.00;102012.16;5057238;28;20684;-62
2023/12/18 08:14:44;;;;;;;16.80;11.97;;;;;;;-0.56;100.00;102002.31;5069160;28;20248;-62
2023/12/18 08:17:12;;;;;;;16.43;11.60;;;;;;;-0.47;100.00;102013.41;5064960;28;20181;-62
2023/12/18 08:19:37;;;;;;;19.57;11.90;;;;;;;-0.55;100.00;102000.63;5056066;28;20225;-62
2023/12/18 08:22:02;;;;;;;15.47;12.07;;;;;;;-0.51;100.00;101999.84;5056871;28;20237;-62
2023/12/18 08:24:28;;;;;;;13.77;10.70;;;;;;;-0.74;100.00;101991.78;5053101;28;20179;-61
2023/12/18 08:26:53;;;;;;;15.70;11.30;;;;;;;-0.76;100.00;102003.53;5052726;28;20551;-61
2023/12/18 08:29:19;;;;;;;25.53;11.00;;;;;;;-0.63;100.00;102005.50;5052096;28;20185;-61
2023/12/18 08:31:44;;;;;;;12.47;10.57;;;;;;;-0.71;100.00;102001.94;5034505;28;20681;-61
2023/12/18 08:34:09;;;;;;;15.73;11.70;;;;;;;-0.51;100.00;101998.19;5050803;28;20248;-61
2023/12/18 08:36:36;;;;;;;21.63;11.67;;;;;;;-0.30;100.00;101998.63;5057982;28;20591;-63
2023/12/18 08:39:02;;;;;;;17.37;11.03;;;;;;;-0.31;100.00;101996.91;5052079;28;20207;-63
2023/12/18 08:41:27;;;;;;;17.33;11.77;;;;;;;-0.13;100.00;101988.88;5029588;28;20247;-61
2023/12/18 08:43:52;;;;;;;14.37;11.27;;;;;;;0.03;100.00;101995.09;5056198;28;20237;-62
2023/12/18 08:46:18;;;;;;;15.10;11.73;;;;;;;0.17;100.00;101991.13;5053119;28;20177;-63
2023/12/18 08:48:43;;;;;;;17.90;11.93;;;;;;;0.23;100.00;101988.69;5058773;28;20195;-63
2023/12/18 08:51:08;;;;;;;16.90;10.90;;;;;;;0.17;100.00;101981.00;5064466;28;20242;-62
2023/12/18 08:53:34;;;;;;;17.20;11.97;;;;;;;0.21;100.00;101982.78;5076328;28;20658;-62
2023/12/18 08:55:59;;;;;;;15.10;11.23;;;;;;;0.37;100.00;101988.94;5059150;28;20212;-62
2023/12/18 08:58:25;;;;;;;12.43;10.30;;;;;;;0.53;100.00;101991.78;5064327;28;20199;-63
2023/12/18 09:00:52;;;;;;;14.93;10.77;;;;;;;0.46;100.00;101986.59;5043761;28;20259;-61
2023/12/18 09:03:19;;;;;;;19.07;10.73;;;;;;;0.24;100.00;101982.81;5056105;28;20666;-62
2023/12/18 09:05:44;;;;;;;15.10;10.30;;;;;;;0.08;100.00;101984.22;5058951;28;20181;-62
2023/12/18 09:08:11;;;;;;;15.07;10.23;;;;;;;0.32;100.00;101980.44;5064814;28;20242;-62
2023/12/18 09:10:36;;;;;;;14.73;11.63;;;;;;;0.38;100.00;101980.53;5052961;28;20230;-62
2023/12/18 09:13:02;;;;;;;15.93;11.57;;;;;;;0.66;100.00;101978.50;5064019;28;20200;-63
2023/12/18 09:15:27;;;;;;;14.90;11.70;;;;;;;0.59;100.00;101981.75;5051881;28;20650;-62
2023/12/18 09:17:52;;;;;;;15.17;11.00;;;;;;;0.36;100.00;101983.88;5051000;28;20198;-62
2023/12/18 09:20:18;;;;;;;12.47;10.57;;;;;;;0.48;100.00;101977.34;5042156;28;20244;-62
2023/12/18 09:22:46;;;;;;;13.60;10.57;;;;;;;0.60;100.00;101983.47;5063824;28;20184;-63
2023/12/18 09:25:11;;;;;;;14.70;11.33;;;;;;;0.74;100.00;101982.00;5051599;28;20556;-62
2023/12/18 09:27:36;;;;;;;13.03;11.27;;;;;;;0.70;100.00;101987.84;5064243;28;20182;-62
2023/12/18 09:30:02;;;;;;;12.53;10.90;;;;;;;0.75;100.00;101982.88;5056960;28;20191;-62
2023/12/18 09:32:27;;;;;;;13.17;10.43;;;;;;;0.54;100.00;101980.81;5059300;28;20231;-63
2023/12/18 09:34:53;;;;;;;13.60;11.17;;;;;;;0.63;100.00;101986.91;5051688;28;20184;-63
2023/12/18 09:37:18;;;;;;;13.50;10.90;;;;;;;0.50;100.00;101977.38;5051063;28;20605;-63
2023/12/18 09:39:43;;;;;;;12.33;10.87;;;;;;;0.27;100.00;101982.91;5051250;28;20193;-62
2023/12/18 09:42:10;;;;;;;14.57;10.43;;;;;;;0.52;100.00;101978.28;5056544;28;20317;-62
2023/12/18 09:44:36;;;;;;;12.90;11.03;;;;;;;0.50;100.00;101967.25;5052857;28;20276;-63
2023/12/18 09:47:01;;;;;;;12.67;10.93;;;;;;;0.77;100.00;101977.00;5053708;28;20177;-63
2023/12/18 09:49:27;;;;;;;13.97;10.57;;;;;;;0.70;100.00;101967.56;5056281;28;20185;-63
2023/12/18 09:51:53;;;;;;;13.67;10.53;;;;;;;1.02;100.00;101961.28;5064332;28;20226;-63
2023/12/18 09:54:20;;;;;;;13.63;11.17;;;;;;;1.10;100.00;101954.66;5059085;28;20627;-63
2023/12/18 09:56:48;;;;;;;11.83;10.30;;;;;;;1.13;100.00;101959.81;5067556;28;20521;-63
2023/12/18 09:59:16;;;;;;;14.30;11.27;;;;;;;1.15;100.00;101959.81;5070737;28;20651;-63
2023/12/18 10:01:42;;;;;;;13.23;10.60;;;;;;;0.90;100.00;101961.97;5066151;28;20223;-62
2023/12/18 10:04:07;;;;;;;13.97;11.27;;;;;;;1.13;100.00;101958.09;5052854;28;20582;-63
2023/12/18 10:06:33;;;;;;;15.27;11.80;;;;;;;1.12;100.00;101953.84;5063874;28;20246;-63
2023/12/18 10:09:03;;;;;;;14.20;11.73;;;;;;;0.87;100.00;101955.19;5060460;28;20201;-63
2023/12/18 10:11:28;;;;;;;15.07;10.00;;;;;;;0.90;100.00;101955.22;5052767;28;20231;-63
2023/12/18 10:13:53;;;;;;;12.83;10.20;;;;;;;0.91;100.00;101948.50;5066643;28;20708;-62
2023/12/18 10:16:20;;;;;;;12.33;10.33;;;;;;;1.31;100.00;101953.28;5061906;28;20181;-60
2023/12/18 10:18:45;;;;;;;13.60;11.23;;;;;;;1.09;100.00;101946.22;5058466;28;20196;-61
2023/12/18 10:21:11;;;;;;;12.23;10.87;;;;;;;1.16;100.00;101942.09;5053333;28;20224;-60
2023/12/18 10:23:36;;;;;;;11.90;10.20;;;;;;;1.27;100.00;101949.84;5060866;28;20280;-60
2023/12/18 10:26:02;;;;;;;12.27;10.43;;;;;;;1.02;100.00;101946.09;5063265;28;20231;-60
2023/12/18 10:28:27;;;;;;;10.80;9.60;;;;;;;1.04;100.00;101950.38;5053409;28;20263;-60
2023/12/18 10:30:53;;;;;;;13.77;10.90;;;;;;;1.24;100.00;101945.59;5043607;28;20243;-61
2023/12/18 10:33:18;;;;;;;12.90;10.57;;;;;;;1.12;100.00;101943.72;5051674;28;20185;-60
2023/12/18 10:35:47;;;;;;;13.20;10.20;;;;;;;1.32;100.00;101943.16;5054741;28;20193;-61
2023/12/18 10:38:19;;;;;;;12.97;10.10;;;;;;;1.27;100.00;101938.00;5060347;28;20172;-61
2023/12/18 10:40:45;;;;;;;13.47;10.87;;;;;;;1.29;100.00;101938.06;5059277;28;20950;-61
2023/12/18 10:43:23;;;;;;;11.87;9.83;;;;;;;1.25;100.00;101936.28;5052458;28;20184;-60
2023/12/18 10:45:49;;;;;;;17.27;10.80;;;;;;;1.40;100.00;101931.44;5071948;28;20703;-61
2023/12/18 10:48:16;;;;;;;13.50;10.43;;;;;;;1.49;100.00;101935.78;5072175;28;20669;-61
2023/12/18 10:50:42;;;;;;;13.03;10.17;;;;;;;1.49;100.00;101929.84;5062960;28;20239;-62
2023/12/18 10:53:10;;;;;;;12.70;11.10;;;;;;;1.37;100.00;101933.09;5067103;28;20233;-60
2023/12/18 10:55:36;;;;;;;11.20;10.03;;;;;;;1.21;100.00;101919.34;5071035;28;20309;-60
2023/12/18 10:58:04;;;;;;;13.87;10.43;;;;;;;1.12;100.00;101920.06;5063834;28;20571;-61
2023/12/18 11:00:31;;;;;;;11.77;10.20;;;;;;;1.13;100.00;101917.53;5045278;28;20229;-62